createdAt,value
2022-12-25T00:02:02.416Z,14.48
2022-12-25T00:04:28.887Z,17.13
2022-12-25T00:06:55.920Z,16.80
2022-12-25T00:09:22.404Z,16.70
2022-12-25T00:11:48.946Z,15.48
2022-12-25T00:14:15.469Z,16.27
2022-12-25T00:16:42.182Z,15.40
2022-12-25T00:19:08.936Z,19.33
2022-12-25T00:21:35.469Z,12.70
2022-12-25T00:24:03.581Z,14.23
2022-12-25T00:26:30.217Z,10.68
2022-12-25T00:28:58.246Z,10.75
2022-12-25T00:31:25.995Z,13.82
2022-12-25T00:33:52.958Z,10.55
2022-12-25T00:36:21.524Z,12.23
2022-12-25T00:38:48.378Z,10.88
2022-12-25T00:41:38.677Z,12.25
2022-12-25T00:44:06.166Z,10.32
2022-12-25T00:46:32.729Z,11.18
2022-12-25T00:49:00.595Z,13.85
2022-12-25T00:51:27.622Z,10.25
2022-12-25T00:53:54.459Z,9.98
2022-12-25T00:56:21.018Z,11.50
2022-12-25T00:58:47.823Z,10.70
2022-12-25T01:01:14.593Z,9.25
2022-12-25T01:03:41.224Z,9.27
2022-12-25T01:06:08.318Z,8.10
2022-12-25T01:08:37.664Z,8.45
2022-12-25T01:11:08.814Z,11.00
2022-12-25T01:13:36.897Z,12.75
2022-12-25T01:16:08.291Z,12.35
2022-12-25T01:18:35.311Z,12.18
2022-12-25T01:21:09.461Z,11.65
2022-12-25T01:23:36.176Z,15.50
2022-12-25T01:26:06.470Z,15.00
2022-12-25T01:28:33.070Z,14.43
2022-12-25T01:30:59.637Z,13.05
2022-12-25T01:33:26.331Z,12.48
2022-12-25T01:35:52.842Z,18.02
2022-12-25T01:38:19.456Z,20.00
2022-12-25T01:40:45.968Z,15.07
2022-12-25T01:43:27.631Z,15.68
2022-12-25T01:45:54.400Z,19.02
2022-12-25T01:48:30.715Z,15.43
2022-12-25T01:51:03.891Z,18.27
2022-12-25T01:53:30.723Z,19.08
2022-12-25T01:56:03.550Z,17.98
2022-12-25T01:58:30.653Z,19.50
2022-12-25T02:00:57.482Z,14.35
2022-12-25T02:03:24.344Z,14.82
2022-12-25T02:05:51.852Z,17.73
2022-12-25T02:08:21.010Z,16.27
2022-12-25T02:10:48.146Z,17.90
2022-12-25T02:13:17.738Z,18.35
2022-12-25T02:15:56.053Z,20.48
2022-12-25T02:18:38.749Z,14.98
2022-12-25T02:21:21.218Z,17.90
2022-12-25T02:23:57.931Z,20.35
2022-12-25T02:26:38.505Z,17.00
2022-12-25T02:29:17.440Z,23.30
2022-12-25T02:31:59.408Z,18.65
2022-12-25T02:34:36.296Z,20.98
2022-12-25T02:37:09.035Z,23.00
2022-12-25T02:39:59.391Z,48.90
2022-12-25T02:42:57.966Z,28.02
2022-12-25T02:45:58.381Z,21.90
2022-12-25T02:48:46.668Z,20.88
2022-12-25T02:51:35.426Z,22.83
2022-12-25T02:54:24.980Z,18.45
2022-12-25T02:57:12.442Z,16.73
2022-12-25T03:00:01.995Z,18.55
2022-12-25T03:02:49.365Z,19.88
2022-12-25T03:05:40.348Z,18.40
2022-12-25T03:08:11.489Z,20.58
2022-12-25T03:11:00.145Z,16.40
2022-12-25T03:13:34.312Z,14.68
2022-12-25T03:16:19.985Z,17.15
2022-12-25T03:18:47.052Z,19.30
2022-12-25T03:21:32.345Z,17.02
2022-12-25T03:24:22.248Z,18.15
2022-12-25T03:26:57.710Z,20.13
2022-12-25T03:29:47.468Z,28.52
2022-12-25T03:32:28.981Z,27.02
2022-12-25T03:35:25.884Z,26.33
2022-12-25T03:38:27.227Z,22.45
2022-12-25T03:41:19.849Z,18.77
2022-12-25T03:44:15.166Z,20.48
2022-12-25T03:47:07.393Z,20.30
2022-12-25T03:50:11.755Z,20.65
2022-12-25T03:52:58.519Z,18.88
2022-12-25T03:55:44.885Z,19.70
2022-12-25T03:58:38.820Z,21.23
2022-12-25T04:01:24.173Z,22.10
2022-12-25T04:04:09.442Z,16.88
2022-12-25T04:06:54.644Z,22.00
2022-12-25T04:09:39.859Z,23.30
2022-12-25T04:12:25.350Z,24.02
2022-12-25T04:15:10.381Z,18.83
2022-12-25T04:17:55.299Z,18.67
2022-12-25T04:20:40.481Z,21.35
2022-12-25T04:23:25.577Z,15.75
2022-12-25T04:26:10.818Z,21.58
2022-12-25T04:28:55.640Z,19.42
2022-12-25T04:31:40.873Z,19.58
2022-12-25T04:34:25.930Z,20.83
2022-12-25T04:36:52.443Z,22.27
2022-12-25T04:39:19.005Z,22.13
2022-12-25T04:41:45.508Z,22.00
2022-12-25T04:44:12.122Z,17.20
2022-12-25T04:46:38.672Z,25.45
2022-12-25T04:49:05.225Z,19.92
2022-12-25T04:51:31.804Z,31.45
2022-12-25T04:53:58.324Z,25.25
2022-12-25T04:56:24.834Z,23.25
2022-12-25T04:58:51.357Z,22.88
2022-12-25T05:01:17.962Z,19.27
2022-12-25T05:03:44.712Z,21.60
2022-12-25T05:06:11.909Z,23.10
2022-12-25T05:08:38.831Z,18.98
2022-12-25T05:11:07.700Z,20.02
2022-12-25T05:13:34.670Z,23.42
2022-12-25T05:16:05.239Z,23.85
2022-12-25T05:18:31.796Z,23.60
2022-12-25T05:20:58.373Z,30.98
2022-12-25T05:23:24.994Z,24.48
2022-12-25T05:25:51.571Z,26.35
2022-12-25T05:28:18.203Z,21.58
2022-12-25T05:30:44.996Z,22.63
2022-12-25T05:33:11.585Z,23.05
2022-12-25T05:35:39.000Z,32.33
2022-12-25T05:38:07.273Z,24.92
2022-12-25T05:40:34.986Z,22.48
2022-12-25T05:43:01.510Z,20.63
2022-12-25T05:45:28.039Z,18.45
2022-12-25T05:47:54.591Z,21.02
2022-12-25T05:50:21.106Z,20.35
2022-12-25T05:52:47.583Z,20.10
2022-12-25T05:55:14.260Z,16.65
2022-12-25T05:57:40.790Z,22.92
2022-12-25T06:00:08.002Z,14.30
2022-12-25T06:02:37.928Z,17.10
2022-12-25T06:05:05.082Z,20.38
2022-12-25T06:07:31.602Z,18.80
2022-12-25T06:09:58.176Z,22.42
2022-12-25T06:12:24.702Z,19.90
2022-12-25T06:14:51.200Z,19.23
2022-12-25T06:17:17.708Z,17.85
2022-12-25T06:19:44.294Z,23.05
2022-12-25T06:22:10.777Z,17.73
2022-12-25T06:24:37.499Z,28.60
2022-12-25T06:27:04.009Z,27.40
2022-12-25T06:29:30.504Z,32.13
2022-12-25T06:31:57.604Z,39.22
2022-12-25T06:34:24.495Z,42.90
2022-12-25T06:36:50.995Z,38.72
2022-12-25T06:39:17.591Z,29.30
2022-12-25T06:41:44.183Z,30.20
2022-12-25T06:44:10.756Z,30.80
2022-12-25T06:46:37.279Z,28.02
2022-12-25T06:49:03.831Z,29.83
2022-12-25T06:51:32.135Z,26.98
2022-12-25T06:53:59.542Z,24.20
2022-12-25T06:56:27.919Z,27.88
2022-12-25T06:58:58.684Z,24.10
2022-12-25T07:01:32.279Z,27.00
2022-12-25T07:04:03.390Z,23.05
2022-12-25T07:06:30.259Z,22.02
2022-12-25T07:08:56.853Z,18.35
2022-12-25T07:11:24.674Z,24.80
2022-12-25T07:13:51.405Z,25.52
2022-12-25T07:16:18.532Z,21.40
2022-12-25T07:18:45.109Z,21.70
2022-12-25T07:21:14.780Z,20.48
2022-12-25T07:23:42.097Z,28.30
2022-12-25T07:26:10.679Z,53.35
2022-12-25T07:28:37.284Z,36.80
2022-12-25T07:31:07.011Z,40.58
2022-12-25T07:33:34.069Z,50.90
2022-12-25T07:36:01.011Z,22.10
2022-12-25T07:38:28.093Z,20.20
2022-12-25T07:40:54.792Z,21.38
2022-12-25T07:43:21.392Z,18.95
2022-12-25T07:45:48.188Z,21.23
2022-12-25T07:48:16.840Z,20.27
2022-12-25T07:50:43.705Z,20.48
2022-12-25T07:53:10.374Z,20.85
2022-12-25T07:55:36.870Z,13.30
2022-12-25T07:58:03.398Z,17.63
2022-12-25T08:00:33.676Z,19.38
2022-12-25T08:03:00.705Z,20.05
2022-12-25T08:05:27.408Z,18.33
2022-12-25T08:07:57.705Z,14.73
2022-12-25T08:10:25.028Z,18.20
2022-12-25T08:12:52.230Z,22.83
2022-12-25T08:15:18.824Z,20.90
2022-12-25T08:17:45.475Z,22.85
2022-12-25T08:20:12.294Z,20.25
2022-12-25T08:22:38.854Z,17.38
2022-12-25T08:25:05.570Z,16.73
2022-12-25T08:27:32.110Z,18.63
2022-12-25T08:29:58.592Z,19.08
2022-12-25T08:32:25.215Z,18.45
2022-12-25T08:34:51.747Z,19.42
2022-12-25T08:37:18.260Z,15.43
2022-12-25T08:39:44.787Z,15.68
2022-12-25T08:42:11.244Z,15.93
2022-12-25T08:44:37.833Z,13.52
2022-12-25T08:47:04.609Z,15.50
2022-12-25T08:49:31.168Z,15.70
2022-12-25T08:51:57.892Z,16.20
2022-12-25T08:54:25.302Z,12.70
2022-12-25T08:56:53.365Z,13.65
2022-12-25T08:59:22.788Z,15.18
2022-12-25T09:01:49.524Z,15.50
2022-12-25T09:04:16.227Z,12.23
2022-12-25T09:06:42.775Z,14.60
2022-12-25T09:09:09.260Z,12.63
2022-12-25T09:11:35.773Z,11.35
2022-12-25T09:14:02.351Z,11.18
2022-12-25T09:16:28.952Z,14.32
2022-12-25T09:18:58.434Z,14.25
2022-12-25T09:21:24.955Z,13.48
2022-12-25T09:23:51.493Z,14.23
2022-12-25T09:26:18.858Z,11.20
2022-12-25T09:28:51.278Z,15.00
2022-12-25T09:31:19.805Z,12.48
2022-12-25T09:33:46.351Z,13.02
2022-12-25T09:36:12.937Z,11.77
2022-12-25T09:38:39.751Z,11.40
2022-12-25T09:41:40.720Z,13.15
2022-12-25T09:44:11.815Z,13.00
2022-12-25T09:46:47.400Z,13.75
2022-12-25T09:49:39.029Z,11.38
2022-12-25T09:52:12.593Z,14.88
2022-12-25T09:54:47.673Z,9.23
2022-12-25T09:57:15.480Z,12.43
2022-12-25T09:59:44.242Z,13.35
2022-12-25T10:02:36.494Z,16.20
2022-12-25T10:05:21.981Z,11.57
2022-12-25T10:08:23.911Z,11.32
2022-12-25T10:11:03.728Z,11.55
2022-12-25T10:13:51.449Z,12.10
2022-12-25T10:16:30.020Z,12.40
2022-12-25T10:19:12.349Z,12.43
2022-12-25T10:21:39.277Z,14.75
2022-12-25T10:24:26.945Z,13.48
2022-12-25T10:26:56.441Z,11.52
2022-12-25T10:29:23.228Z,14.60
2022-12-25T10:31:53.917Z,14.90
2022-12-25T10:34:21.065Z,15.02
2022-12-25T10:36:47.898Z,17.10
2022-12-25T10:39:23.183Z,16.50
2022-12-25T10:42:09.581Z,19.63
2022-12-25T10:44:36.597Z,14.30
2022-12-25T10:47:04.874Z,17.33
2022-12-25T10:49:37.899Z,19.83
2022-12-25T10:52:21.062Z,20.48
2022-12-25T10:54:47.774Z,18.67
2022-12-25T10:57:16.653Z,18.08
2022-12-25T10:59:58.281Z,19.08
2022-12-25T11:02:30.785Z,16.65
2022-12-25T11:05:04.333Z,20.90
2022-12-25T11:07:32.250Z,19.02
2022-12-25T11:10:05.631Z,16.17
2022-12-25T11:12:37.174Z,13.55
2022-12-25T11:15:26.485Z,17.73
2022-12-25T11:17:53.140Z,9.00
2022-12-25T11:20:20.521Z,15.02
2022-12-25T11:22:49.426Z,13.77
2022-12-25T11:25:26.568Z,14.85
2022-12-25T11:28:04.809Z,19.52
2022-12-25T11:30:35.225Z,16.52
2022-12-25T11:33:07.994Z,12.18
2022-12-25T11:35:54.915Z,11.65
2022-12-25T11:38:21.593Z,10.40
2022-12-25T11:40:52.087Z,15.27
2022-12-25T11:43:46.433Z,14.38
2022-12-25T11:46:24.200Z,13.18
2022-12-25T11:48:56.291Z,13.00
2022-12-25T11:51:30.747Z,13.95
2022-12-25T11:54:08.055Z,12.15
2022-12-25T11:56:34.581Z,14.27
2022-12-25T11:59:10.541Z,11.50
2022-12-25T12:01:55.094Z,15.20
2022-12-25T12:04:30.206Z,12.73
2022-12-25T12:07:20.535Z,15.05
2022-12-25T12:10:17.842Z,14.40
2022-12-25T12:12:56.479Z,12.73
2022-12-25T12:15:39.606Z,15.25
2022-12-25T12:18:33.380Z,15.70
2022-12-25T12:21:23.089Z,19.70
2022-12-25T12:24:03.408Z,12.02
2022-12-25T12:26:36.830Z,14.52
2022-12-25T12:29:06.056Z,8.32
2022-12-25T12:31:45.634Z,10.23
2022-12-25T12:34:44.954Z,15.43
2022-12-25T12:37:34.887Z,12.40
2022-12-25T12:40:02.870Z,13.65
2022-12-25T12:42:33.384Z,13.05
2022-12-25T12:45:10.252Z,9.40
2022-12-25T12:47:47.746Z,10.25
2022-12-25T12:50:33.290Z,12.02
2022-12-25T12:53:00.887Z,14.00
2022-12-25T12:55:33.283Z,17.25
2022-12-25T12:58:03.145Z,14.27
2022-12-25T13:00:42.538Z,14.25
2022-12-25T13:03:23.640Z,13.63
2022-12-25T13:06:14.924Z,13.82
2022-12-25T13:08:41.440Z,8.55
2022-12-25T13:11:19.999Z,13.40
2022-12-25T13:13:48.694Z,10.35
2022-12-25T13:16:36.996Z,11.27
2022-12-25T13:19:12.241Z,11.40
2022-12-25T13:21:39.037Z,15.13
2022-12-25T13:24:09.151Z,13.40
2022-12-25T13:26:35.997Z,11.40
2022-12-25T13:29:09.449Z,15.50
2022-12-25T13:31:40.637Z,5.20
2022-12-25T13:34:23.535Z,10.27
2022-12-25T13:36:50.304Z,9.43
2022-12-25T13:39:18.359Z,16.98
2022-12-25T13:42:06.482Z,12.98
2022-12-25T13:45:00.529Z,14.57
2022-12-25T13:47:31.629Z,17.05
2022-12-25T13:50:00.751Z,10.38
2022-12-25T13:52:33.787Z,18.23
2022-12-25T13:55:12.163Z,16.13
2022-12-25T13:57:42.504Z,19.02
2022-12-25T14:00:19.629Z,25.42
2022-12-25T14:02:47.600Z,21.08
2022-12-25T14:05:34.699Z,12.88
2022-12-25T14:08:23.080Z,13.60
2022-12-25T14:10:51.383Z,16.17
2022-12-25T14:13:21.081Z,16.55
2022-12-25T14:15:49.440Z,18.30
2022-12-25T14:18:18.191Z,16.48
2022-12-25T14:21:04.769Z,18.73
2022-12-25T14:26:06.412Z,13.02
2022-12-25T14:28:34.579Z,16.85
2022-12-25T14:31:02.218Z,17.40
2022-12-25T14:33:39.341Z,13.23
2022-12-25T14:36:07.355Z,14.52
2022-12-25T14:38:40.359Z,16.23
2022-12-25T14:41:25.913Z,15.98
2022-12-25T14:43:55.250Z,16.70
2022-12-25T14:46:27.690Z,17.20
2022-12-25T14:49:05.773Z,13.38
2022-12-25T14:51:34.267Z,13.35
2022-12-25T14:54:14.126Z,16.83
2022-12-25T14:56:47.304Z,18.65
2022-12-25T14:59:20.636Z,17.77
2022-12-25T15:01:53.393Z,20.60
2022-12-25T15:04:22.334Z,17.60
2022-12-25T15:06:54.456Z,16.70
2022-12-25T15:09:21.632Z,13.57
2022-12-25T15:11:53.482Z,18.05
2022-12-25T15:14:20.010Z,17.52
2022-12-25T15:16:53.274Z,18.48
2022-12-25T15:19:29.243Z,16.75
2022-12-25T15:21:59.699Z,18.60
2022-12-25T15:24:26.202Z,14.38
2022-12-25T15:26:55.836Z,14.95
2022-12-25T15:29:44.652Z,15.93
2022-12-25T15:34:42.272Z,15.90
2022-12-25T15:37:08.782Z,16.60
2022-12-25T15:39:35.302Z,17.88
2022-12-25T15:42:10.823Z,15.02
2022-12-25T15:44:37.437Z,16.58
2022-12-25T15:47:04.294Z,23.48
2022-12-25T15:49:30.871Z,11.95
2022-12-25T15:51:57.412Z,14.65
2022-12-25T15:54:23.945Z,17.35
2022-12-25T15:56:53.675Z,17.02
2022-12-25T15:59:21.332Z,21.13
2022-12-25T16:01:53.771Z,17.75
2022-12-25T16:04:21.602Z,19.38
2022-12-25T16:06:48.661Z,17.60
2022-12-25T16:09:16.481Z,20.23
2022-12-25T16:11:43.515Z,25.13
2022-12-25T16:14:10.419Z,23.33
2022-12-25T16:16:37.517Z,20.88
2022-12-25T16:19:04.326Z,23.85
2022-12-25T16:21:39.251Z,26.10
2022-12-25T16:24:06.109Z,10.43
2022-12-25T16:26:33.383Z,17.83
2022-12-25T16:29:05.144Z,19.50
2022-12-25T16:31:34.254Z,26.67
2022-12-25T16:34:01.559Z,16.83
2022-12-25T16:36:28.059Z,24.45
2022-12-25T16:38:54.587Z,23.42
2022-12-25T16:41:21.936Z,25.23
2022-12-25T16:43:48.801Z,25.85
2022-12-25T16:46:18.100Z,27.52
2022-12-25T16:48:45.071Z,24.25
2022-12-25T16:51:13.935Z,22.30
2022-12-25T16:53:40.781Z,23.42
2022-12-25T16:56:16.302Z,21.00
2022-12-25T16:58:45.909Z,27.10
2022-12-25T17:01:16.109Z,28.30
2022-12-25T17:03:43.224Z,27.70
2022-12-25T17:06:23.183Z,30.90
2022-12-25T17:08:52.023Z,23.45
2022-12-25T17:11:23.611Z,26.33
2022-12-25T17:13:50.550Z,24.58
2022-12-25T17:16:23.150Z,28.23
2022-12-25T17:18:56.782Z,27.55
2022-12-25T17:21:26.588Z,31.30
2022-12-25T17:24:01.220Z,24.80
2022-12-25T17:26:29.519Z,32.38
2022-12-25T17:28:57.260Z,28.33
2022-12-25T17:31:23.993Z,26.25
2022-12-25T17:33:50.662Z,32.65
2022-12-25T17:36:20.222Z,36.72
2022-12-25T17:38:48.772Z,31.15
2022-12-25T17:41:17.549Z,28.10
2022-12-25T17:43:45.696Z,32.45
2022-12-25T17:46:12.389Z,35.97
2022-12-25T17:48:39.145Z,31.38
2022-12-25T17:51:08.546Z,28.15
2022-12-25T17:53:40.155Z,32.30
2022-12-25T17:56:07.627Z,32.30
2022-12-25T17:58:34.134Z,30.35
2022-12-25T18:01:06.442Z,29.30
2022-12-25T18:03:33.248Z,37.83
2022-12-25T18:06:04.092Z,28.27
2022-12-25T18:08:35.435Z,37.35
2022-12-25T18:11:08.196Z,32.38
2022-12-25T18:13:34.721Z,35.20
2022-12-25T18:16:06.979Z,32.53
2022-12-25T18:18:34.473Z,33.40
2022-12-25T18:21:02.335Z,32.15
2022-12-25T18:23:30.177Z,32.65
2022-12-25T18:25:56.915Z,30.33
2022-12-25T18:28:23.454Z,37.20
2022-12-25T18:30:50.240Z,33.05
2022-12-25T18:33:16.731Z,23.73
2022-12-25T18:35:46.771Z,36.10
2022-12-25T18:38:14.281Z,31.33
2022-12-25T18:40:45.687Z,30.25
2022-12-25T18:43:12.925Z,31.13
2022-12-25T18:45:39.935Z,32.10
2022-12-25T18:48:06.716Z,31.25
2022-12-25T18:50:34.818Z,37.08
2022-12-25T18:53:01.939Z,33.08
2022-12-25T18:55:30.132Z,33.45
2022-12-25T18:57:56.971Z,35.88
2022-12-25T19:00:25.228Z,41.17
2022-12-25T19:02:57.313Z,34.53
2022-12-25T19:05:24.565Z,37.45
2022-12-25T19:07:53.898Z,36.03
2022-12-25T19:10:20.436Z,33.83
2022-12-25T19:12:47.235Z,37.80
2022-12-25T19:15:14.198Z,33.53
2022-12-25T19:17:40.808Z,38.72
2022-12-25T19:20:08.213Z,33.80
2022-12-25T19:22:34.726Z,37.28
2022-12-25T19:25:01.735Z,35.90
2022-12-25T19:27:28.454Z,35.83
2022-12-25T19:29:55.069Z,33.58
2022-12-25T19:32:21.644Z,38.80
2022-12-25T19:34:49.176Z,34.65
2022-12-25T19:37:15.766Z,38.63
2022-12-25T19:39:48.307Z,40.20
2022-12-25T19:42:16.812Z,33.55
2022-12-25T19:44:43.568Z,33.78
2022-12-25T19:47:11.575Z,38.45
2022-12-25T19:49:40.494Z,42.28
2022-12-25T19:52:07.315Z,47.08
2022-12-25T19:54:33.819Z,34.88
2022-12-25T19:57:00.703Z,36.92
2022-12-25T19:59:27.341Z,38.30
2022-12-25T20:01:56.022Z,35.25
2022-12-25T20:04:22.778Z,37.88
2022-12-25T20:06:49.604Z,40.03
2022-12-25T20:09:21.229Z,35.90
2022-12-25T20:11:48.424Z,34.88
2022-12-25T20:14:19.752Z,40.92
2022-12-25T20:16:46.508Z,31.75
2022-12-25T20:19:14.033Z,34.35
2022-12-25T20:21:40.801Z,34.30
2022-12-25T20:24:10.971Z,31.17
2022-12-25T20:26:38.968Z,28.42
2022-12-25T20:29:05.882Z,31.60
2022-12-25T20:31:34.804Z,34.83
2022-12-25T20:34:07.063Z,32.38
2022-12-25T20:36:37.285Z,27.00
2022-12-25T20:39:09.655Z,28.92
2022-12-25T20:41:37.210Z,34.95
2022-12-25T20:44:06.488Z,25.95
2022-12-25T20:46:33.136Z,39.88
2022-12-25T20:49:01.798Z,24.73
2022-12-25T20:51:28.374Z,24.23
2022-12-25T20:53:56.313Z,30.85
2022-12-25T20:56:24.737Z,30.08
2022-12-25T20:58:56.498Z,27.45
2022-12-25T21:01:23.581Z,28.88
2022-12-25T21:03:50.933Z,17.35
2022-12-25T21:06:17.582Z,22.17
2022-12-25T21:08:44.241Z,31.70
2022-12-25T21:11:11.459Z,32.90
2022-12-25T21:13:42.839Z,23.50
2022-12-25T21:16:12.998Z,35.50
2022-12-25T21:18:39.778Z,23.80
2022-12-25T21:21:07.805Z,23.17
2022-12-25T21:23:37.018Z,25.65
2022-12-25T21:26:20.406Z,20.20
2022-12-25T21:28:51.585Z,22.23
2022-12-25T21:31:18.525Z,24.20
2022-12-25T21:33:55.151Z,28.15
2022-12-25T21:36:30.747Z,22.98
2022-12-25T21:38:58.473Z,26.85
2022-12-25T21:41:26.542Z,14.20
2022-12-25T21:43:53.484Z,21.35
2022-12-25T21:46:20.445Z,23.38
2022-12-25T21:48:47.152Z,19.10
2022-12-25T21:51:35.680Z,31.45
2022-12-25T21:54:02.874Z,23.10
2022-12-25T21:56:41.390Z,18.42
2022-12-25T21:59:12.267Z,19.27
2022-12-25T22:01:38.924Z,13.57
2022-12-25T22:04:08.087Z,22.73
2022-12-25T22:06:53.542Z,21.17
2022-12-25T22:09:21.143Z,19.80
2022-12-25T22:12:06.129Z,18.25
2022-12-25T22:14:54.876Z,15.40
2022-12-25T22:17:49.433Z,23.95
2022-12-25T22:20:19.483Z,23.63
2022-12-25T22:22:46.187Z,23.55
2022-12-25T22:25:14.049Z,25.70
2022-12-25T22:27:42.531Z,23.30
2022-12-25T22:30:15.157Z,20.48
2022-12-25T22:32:41.799Z,20.73
2022-12-25T22:35:08.979Z,27.08
2022-12-25T22:37:36.192Z,20.02
2022-12-25T22:40:04.156Z,26.65
2022-12-25T22:42:31.021Z,18.83
2022-12-25T22:44:57.746Z,32.55
2022-12-25T22:47:24.606Z,26.95
2022-12-25T22:49:51.122Z,23.45
2022-12-25T22:52:17.628Z,24.33
2022-12-25T22:54:44.525Z,20.73
2022-12-25T22:57:11.109Z,21.60
2022-12-25T22:59:37.969Z,25.65
2022-12-25T23:02:04.592Z,21.15
2022-12-25T23:04:31.320Z,26.40
2022-12-25T23:06:58.299Z,20.77
2022-12-25T23:09:28.013Z,24.35
2022-12-25T23:11:58.865Z,21.13
2022-12-25T23:14:39.117Z,29.02
2022-12-25T23:17:30.968Z,25.15
2022-12-25T23:20:17.729Z,25.38
2022-12-25T23:23:03.540Z,25.42
2022-12-25T23:25:48.869Z,19.00
2022-12-25T23:28:35.345Z,25.70
2022-12-25T23:31:01.961Z,22.50
2022-12-25T23:33:28.553Z,26.58
2022-12-25T23:35:55.164Z,22.88
2022-12-25T23:38:21.685Z,18.92
2022-12-25T23:40:48.219Z,22.20
2022-12-25T23:43:14.723Z,23.77
2022-12-25T23:45:41.241Z,23.17
2022-12-25T23:48:07.723Z,18.52
2022-12-25T23:50:34.447Z,27.20
2022-12-25T23:53:00.982Z,25.08
2022-12-25T23:55:27.497Z,25.63
2022-12-25T23:57:54.001Z,25.85
